sensor_id;sensor_type;location;lat;lon;timestamp;P1;durP1;ratioP1;P2;durP2;ratioP2
67675;SDS011;54456;48.436;10.028;2024-02-16T00:00:43;14.67;;;6.07;;
67675;SDS011;54456;48.436;10.028;2024-02-16T00:02:16;14.57;;;6.63;;
67675;SDS011;54456;48.436;10.028;2024-02-16T00:03:48;12.63;;;5.63;;
67675;SDS011;54456;48.436;10.028;2024-02-16T00:05:18;19.35;;;5.95;;
67675;SDS011;54456;48.436;10.028;2024-02-16T00:06:49;14.20;;;5.80;;
67675;SDS011;54456;48.436;10.028;2024-02-16T00:08:19;14.05;;;5.90;;
67675;SDS011;54456;48.436;10.028;2024-02-16T00:09:50;16.38;;;5.35;;
67675;SDS011;54456;48.436;10.028;2024-02-16T00:11:20;14.73;;;5.65;;
67675;SDS011;54456;48.436;10.028;2024-02-16T00:12:51;13.30;;;5.30;;
67675;SDS011;54456;48.436;10.028;2024-02-16T00:14:24;13.48;;;5.43;;
67675;SDS011;54456;48.436;10.028;2024-02-16T00:15:54;13.98;;;5.13;;
67675;SDS011;54456;48.436;10.028;2024-02-16T00:17:25;14.50;;;5.57;;
67675;SDS011;54456;48.436;10.028;2024-02-16T00:18:56;12.45;;;5.45;;
67675;SDS011;54456;48.436;10.028;2024-02-16T00:20:27;11.30;;;5.00;;
67675;SDS011;54456;48.436;10.028;2024-02-16T00:21:57;12.95;;;5.05;;
67675;SDS011;54456;48.436;10.028;2024-02-16T00:23:28;14.35;;;5.15;;
67675;SDS011;54456;48.436;10.028;2024-02-16T00:24:58;13.80;;;5.50;;
67675;SDS011;54456;48.436;10.028;2024-02-16T00:26:29;14.70;;;5.77;;
67675;SDS011;54456;48.436;10.028;2024-02-16T00:27:59;13.43;;;5.47;;
67675;SDS011;54456;48.436;10.028;2024-02-16T00:29:29;18.47;;;5.87;;
67675;SDS011;54456;48.436;10.028;2024-02-16T04:15:28;20.25;;;7.07;;
67675;SDS011;54456;48.436;10.028;2024-02-16T04:16:59;22.58;;;7.68;;
67675;SDS011;54456;48.436;10.028;2024-02-16T04:18:30;20.58;;;7.78;;
67675;SDS011;54456;48.436;10.028;2024-02-16T04:20:00;19.70;;;7.87;;
67675;SDS011;54456;48.436;10.028;2024-02-16T04:21:30;24.00;;;8.07;;
67675;SDS011;54456;48.436;10.028;2024-02-16T04:23:01;23.05;;;8.73;;
67675;SDS011;54456;48.436;10.028;2024-02-16T04:24:32;20.55;;;7.15;;
67675;SDS011;54456;48.436;10.028;2024-02-16T04:26:02;24.90;;;8.63;;
67675;SDS011;54456;48.436;10.028;2024-02-16T04:27:37;22.52;;;7.85;;
67675;SDS011;54456;48.436;10.028;2024-02-16T04:29:07;28.17;;;10.60;;
67675;SDS011;54456;48.436;10.028;2024-02-16T04:30:37;25.30;;;9.67;;
67675;SDS011;54456;48.436;10.028;2024-02-16T04:32:08;33.67;;;10.50;;
67675;SDS011;54456;48.436;10.028;2024-02-16T04:33:39;27.23;;;9.93;;
67675;SDS011;54456;48.436;10.028;2024-02-16T04:35:09;25.47;;;9.63;;
67675;SDS011;54456;48.436;10.028;2024-02-16T04:36:42;28.02;;;9.98;;
67675;SDS011;54456;48.436;10.028;2024-02-16T04:38:13;28.10;;;9.90;;
67675;SDS011;54456;48.436;10.028;2024-02-16T04:39:46;25.37;;;8.93;;
67675;SDS011;54456;48.436;10.028;2024-02-16T04:41:19;29.38;;;11.13;;
67675;SDS011;54456;48.436;10.028;2024-02-16T04:42:50;23.63;;;9.55;;
67675;SDS011;54456;48.436;10.028;2024-02-16T04:44:20;26.20;;;11.07;;
67675;SDS011;54456;48.436;10.028;2024-02-16T04:45:50;26.93;;;10.53;;
67675;SDS011;54456;48.436;10.028;2024-02-16T04:47:21;27.73;;;10.57;;
67675;SDS011;54456;48.436;10.028;2024-02-16T04:48:51;29.53;;;10.03;;
67675;SDS011;54456;48.436;10.028;2024-02-16T04:50:21;25.73;;;10.27;;
67675;SDS011;54456;48.436;10.028;2024-02-16T04:51:52;27.40;;;10.93;;
67675;SDS011;54456;48.436;10.028;2024-02-16T04:53:22;28.50;;;9.10;;
67675;SDS011;54456;48.436;10.028;2024-02-16T04:54:52;33.23;;;11.27;;
67675;SDS011;54456;48.436;10.028;2024-02-16T04:56:23;21.97;;;7.97;;
67675;SDS011;54456;48.436;10.028;2024-02-16T04:57:54;21.00;;;8.40;;
67675;SDS011;54456;48.436;10.028;2024-02-16T04:59:24;19.67;;;6.32;;
67675;SDS011;54456;48.436;10.028;2024-02-16T05:00:55;18.57;;;7.47;;
67675;SDS011;54456;48.436;10.028;2024-02-16T05:02:25;21.27;;;8.27;;
67675;SDS011;54456;48.436;10.028;2024-02-16T05:03:55;22.97;;;8.47;;
67675;SDS011;54456;48.436;10.028;2024-02-16T05:05:26;24.45;;;7.75;;
67675;SDS011;54456;48.436;10.028;2024-02-16T05:06:57;22.87;;;8.53;;
67675;SDS011;54456;48.436;10.028;2024-02-16T05:08:27;23.17;;;8.93;;
67675;SDS011;54456;48.436;10.028;2024-02-16T05:09:57;21.35;;;8.10;;
67675;SDS011;54456;48.436;10.028;2024-02-16T05:11:28;23.20;;;8.40;;
67675;SDS011;54456;48.436;10.028;2024-02-16T05:13:02;22.15;;;7.85;;
67675;SDS011;54456;48.436;10.028;2024-02-16T05:14:32;21.63;;;8.27;;
67675;SDS011;54456;48.436;10.028;2024-02-16T05:16:07;22.87;;;8.10;;
67675;SDS011;54456;48.436;10.028;2024-02-16T05:17:38;22.50;;;7.63;;
67675;SDS011;54456;48.436;10.028;2024-02-16T05:19:09;22.30;;;8.50;;
67675;SDS011;54456;48.436;10.028;2024-02-16T05:20:39;24.80;;;8.48;;
67675;SDS011;54456;48.436;10.028;2024-02-16T05:22:10;23.67;;;8.68;;
67675;SDS011;54456;48.436;10.028;2024-02-16T05:23:40;23.13;;;8.37;;
67675;SDS011;54456;48.436;10.028;2024-02-16T05:25:14;25.37;;;9.67;;
67675;SDS011;54456;48.436;10.028;2024-02-16T05:26:47;22.83;;;9.35;;
67675;SDS011;54456;48.436;10.028;2024-02-16T05:28:18;20.73;;;7.83;;
67675;SDS011;54456;48.436;10.028;2024-02-16T05:29:48;22.50;;;8.77;;
67675;SDS011;54456;48.436;10.028;2024-02-16T05:31:20;22.20;;;9.43;;
67675;SDS011;54456;48.436;10.028;2024-02-16T05:32:51;23.88;;;9.32;;
67675;SDS011;54456;48.436;10.028;2024-02-16T05:34:23;22.58;;;8.40;;
67675;SDS011;54456;48.436;10.028;2024-02-16T05:35:53;25.47;;;10.20;;
67675;SDS011;54456;48.436;10.028;2024-02-16T05:37:25;18.20;;;7.68;;
67675;SDS011;54456;48.436;10.028;2024-02-16T05:38:55;18.70;;;7.68;;
67675;SDS011;54456;48.436;10.028;2024-02-16T05:40:26;15.73;;;7.03;;
67675;SDS011;54456;48.436;10.028;2024-02-16T05:42:00;19.85;;;7.22;;
67675;SDS011;54456;48.436;10.028;2024-02-16T05:43:31;19.65;;;7.18;;
67675;SDS011;54456;48.436;10.028;2024-02-16T05:45:03;19.33;;;7.50;;
67675;SDS011;54456;48.436;10.028;2024-02-16T05:46:34;18.08;;;6.85;;
67675;SDS011;54456;48.436;10.028;2024-02-16T05:48:04;17.23;;;6.60;;
67675;SDS011;54456;48.436;10.028;2024-02-16T05:49:35;17.75;;;6.97;;
67675;SDS011;54456;48.436;10.028;2024-02-16T05:51:05;18.58;;;7.25;;
67675;SDS011;54456;48.436;10.028;2024-02-16T05:52:35;18.00;;;6.85;;
67675;SDS011;54456;48.436;10.028;2024-02-16T05:54:06;15.85;;;6.45;;
67675;SDS011;54456;48.436;10.028;2024-02-16T05:55:37;16.60;;;6.55;;
67675;SDS011;54456;48.436;10.028;2024-02-16T05:57:08;17.80;;;7.32;;
67675;SDS011;54456;48.436;10.028;2024-02-16T05:58:39;16.27;;;6.88;;
67675;SDS011;54456;48.436;10.028;2024-02-16T06:00:09;20.20;;;6.93;;
67675;SDS011;54456;48.436;10.028;2024-02-16T06:01:40;17.48;;;6.88;;
67675;SDS011;54456;48.436;10.028;2024-02-16T06:03:11;19.93;;;6.93;;
67675;SDS011;54456;48.436;10.028;2024-02-16T06:04:41;15.13;;;6.72;;
67675;SDS011;54456;48.436;10.028;2024-02-16T06:06:11;18.60;;;6.80;;
67675;SDS011;54456;48.436;10.028;2024-02-16T06:07:42;16.02;;;6.38;;
67675;SDS011;54456;48.436;10.028;2024-02-16T06:09:12;18.85;;;7.00;;
67675;SDS011;54456;48.436;10.028;2024-02-16T06:10:43;16.33;;;6.90;;
67675;SDS011;54456;48.436;10.028;2024-02-16T06:12:14;16.05;;;6.50;;
67675;SDS011;54456;48.436;10.028;2024-02-16T06:13:45;17.23;;;6.63;;
67675;SDS011;54456;48.436;10.028;2024-02-16T06:15:16;21.77;;;6.30;;
67675;SDS011;54456;48.436;10.028;2024-02-16T06:16:46;14.70;;;6.18;;
67675;SDS011;54456;48.436;10.028;2024-02-16T06:18:17;14.88;;;6.15;;
67675;SDS011;54456;48.436;10.028;2024-02-16T06:19:47;14.10;;;5.47;;
67675;SDS011;54456;48.436;10.028;2024-02-16T06:21:18;19.73;;;6.60;;
67675;SDS011;54456;48.436;10.028;2024-02-16T06:22:48;15.10;;;6.17;;
67675;SDS011;54456;48.436;10.028;2024-02-16T06:24:19;18.42;;;6.60;;
67675;SDS011;54456;48.436;10.028;2024-02-16T06:25:49;11.48;;;5.07;;
67675;SDS011;54456;48.436;10.028;2024-02-16T06:27:20;13.90;;;5.78;;
67675;SDS011;54456;48.436;10.028;2024-02-16T06:28:51;16.50;;;5.82;;
67675;SDS011;54456;48.436;10.028;2024-02-16T06:30:21;15.82;;;5.82;;
67675;SDS011;54456;48.436;10.028;2024-02-16T06:31:51;15.32;;;6.22;;
67675;SDS011;54456;48.436;10.028;2024-02-16T06:33:22;14.50;;;6.20;;
67675;SDS011;54456;48.436;10.028;2024-02-16T06:34:52;15.33;;;6.07;;
67675;SDS011;54456;48.436;10.028;2024-02-16T06:36:23;14.88;;;6.13;;
67675;SDS011;54456;48.436;10.028;2024-02-16T06:37:53;16.40;;;6.27;;
67675;SDS011;54456;48.436;10.028;2024-02-16T06:39:23;17.57;;;5.80;;
67675;SDS011;54456;48.436;10.028;2024-02-16T06:40:54;16.02;;;6.53;;
67675;SDS011;54456;48.436;10.028;2024-02-16T06:42:24;16.88;;;6.70;;
67675;SDS011;54456;48.436;10.028;2024-02-16T06:43:55;16.27;;;6.10;;
67675;SDS011;54456;48.436;10.028;2024-02-16T06:45:25;15.80;;;6.28;;
67675;SDS011;54456;48.436;10.028;2024-02-16T06:46:55;21.13;;;6.77;;
67675;SDS011;54456;48.436;10.028;2024-02-16T06:48:26;18.83;;;6.80;;
67675;SDS011;54456;48.436;10.028;2024-02-16T06:49:56;17.60;;;6.53;;
67675;SDS011;54456;48.436;10.028;2024-02-16T06:51:27;18.73;;;7.27;;
67675;SDS011;54456;48.436;10.028;2024-02-16T06:52:58;18.60;;;7.15;;
67675;SDS011;54456;48.436;10.028;2024-02-16T06:54:29;20.00;;;7.30;;
67675;SDS011;54456;48.436;10.028;2024-02-16T06:56:00;19.17;;;6.63;;
67675;SDS011;54456;48.436;10.028;2024-02-16T06:57:30;16.43;;;6.97;;
67675;SDS011;54456;48.436;10.028;2024-02-16T06:59:01;18.40;;;6.95;;
67675;SDS011;54456;48.436;10.028;2024-02-16T07:00:31;19.13;;;7.00;;
67675;SDS011;54456;48.436;10.028;2024-02-16T07:02:02;20.15;;;7.53;;
67675;SDS011;54456;48.436;10.028;2024-02-16T07:03:33;19.27;;;7.50;;
67675;SDS011;54456;48.436;10.028;2024-02-16T07:05:03;21.73;;;7.97;;
67675;SDS011;54456;48.436;10.028;2024-02-16T07:06:34;13.55;;;4.75;;
67675;SDS011;54456;48.436;10.028;2024-02-16T07:08:04;20.70;;;7.53;;
67675;SDS011;54456;48.436;10.028;2024-02-16T07:09:36;22.55;;;8.23;;
67675;SDS011;54456;48.436;10.028;2024-02-16T07:11:06;18.10;;;7.90;;
67675;SDS011;54456;48.436;10.028;2024-02-16T07:12:37;24.83;;;10.00;;
67675;SDS011;54456;48.436;10.028;2024-02-16T07:14:07;14.27;;;5.70;;
67675;SDS011;54456;48.436;10.028;2024-02-16T07:15:38;18.30;;;8.30;;
67675;SDS011;54456;48.436;10.028;2024-02-16T07:17:09;18.88;;;7.53;;
67675;SDS011;54456;48.436;10.028;2024-02-16T07:18:39;18.87;;;7.27;;
67675;SDS011;54456;48.436;10.028;2024-02-16T07:20:10;19.88;;;8.13;;
67675;SDS011;54456;48.436;10.028;2024-02-16T07:21:40;18.13;;;6.97;;
67675;SDS011;54456;48.436;10.028;2024-02-16T07:23:11;16.58;;;6.20;;
67675;SDS011;54456;48.436;10.028;2024-02-16T07:24:42;16.35;;;6.30;;
67675;SDS011;54456;48.436;10.028;2024-02-16T07:26:12;17.73;;;7.00;;
67675;SDS011;54456;48.436;10.028;2024-02-16T07:27:44;17.75;;;6.65;;
67675;SDS011;54456;48.436;10.028;2024-02-16T07:29:14;19.83;;;6.80;;
67675;SDS011;54456;48.436;10.028;2024-02-16T07:30:46;15.63;;;5.80;;
67675;SDS011;54456;48.436;10.028;2024-02-16T07:32:16;18.67;;;7.95;;
67675;SDS011;54456;48.436;10.028;2024-02-16T07:33:47;20.40;;;7.53;;
67675;SDS011;54456;48.436;10.028;2024-02-16T07:35:20;18.00;;;6.68;;
67675;SDS011;54456;48.436;10.028;2024-02-16T07:36:54;16.30;;;7.72;;
67675;SDS011;54456;48.436;10.028;2024-02-16T07:38:24;16.75;;;7.80;;
67675;SDS011;54456;48.436;10.028;2024-02-16T07:39:54;19.10;;;6.90;;
67675;SDS011;54456;48.436;10.028;2024-02-16T07:41:25;17.23;;;6.67;;
67675;SDS011;54456;48.436;10.028;2024-02-16T07:42:57;15.73;;;6.85;;
67675;SDS011;54456;48.436;10.028;2024-02-16T07:44:28;16.52;;;6.40;;
67675;SDS011;54456;48.436;10.028;2024-02-16T07:45:58;14.85;;;5.97;;
67675;SDS011;54456;48.436;10.028;2024-02-16T07:47:29;17.45;;;6.78;;
67675;SDS011;54456;48.436;10.028;2024-02-16T07:48:59;18.08;;;7.10;;
67675;SDS011;54456;48.436;10.028;2024-02-16T07:50:30;21.67;;;7.70;;
67675;SDS011;54456;48.436;10.028;2024-02-16T07:52:00;16.77;;;6.60;;
67675;SDS011;54456;48.436;10.028;2024-02-16T07:53:31;14.93;;;5.77;;
67675;SDS011;54456;48.436;10.028;2024-02-16T07:55:01;17.92;;;6.13;;
67675;SDS011;54456;48.436;10.028;2024-02-16T07:56:31;19.83;;;7.17;;
67675;SDS011;54456;48.436;10.028;2024-02-16T07:58:02;16.53;;;6.63;;
67675;SDS011;54456;48.436;10.028;2024-02-16T07:59:32;18.58;;;6.75;;
67675;SDS011;54456;48.436;10.028;2024-02-16T08:01:03;14.30;;;6.47;;
67675;SDS011;54456;48.436;10.028;2024-02-16T08:02:33;17.42;;;6.50;;
67675;SDS011;54456;48.436;10.028;2024-02-16T08:04:04;18.27;;;6.63;;
67675;SDS011;54456;48.436;10.028;2024-02-16T08:05:34;15.85;;;6.50;;
67675;SDS011;54456;48.436;10.028;2024-02-16T08:07:05;17.70;;;7.30;;
67675;SDS011;54456;48.436;10.028;2024-02-16T08:08:35;19.67;;;7.00;;
67675;SDS011;54456;48.436;10.028;2024-02-16T08:10:06;16.98;;;6.00;;
67675;SDS011;54456;48.436;10.028;2024-02-16T08:11:36;17.17;;;5.80;;
67675;SDS011;54456;48.436;10.028;2024-02-16T08:13:07;17.80;;;7.47;;
67675;SDS011;54456;48.436;10.028;2024-02-16T08:14:37;17.60;;;6.07;;
67675;SDS011;54456;48.436;10.028;2024-02-16T08:16:11;17.45;;;7.65;;
67675;SDS011;54456;48.436;10.028;2024-02-16T08:17:41;16.08;;;6.95;;
67675;SDS011;54456;48.436;10.028;2024-02-16T08:19:12;16.33;;;5.50;;
67675;SDS011;54456;48.436;10.028;2024-02-16T08:20:43;16.65;;;7.40;;
67675;SDS011;54456;48.436;10.028;2024-02-16T08:22:14;15.57;;;6.27;;
67675;SDS011;54456;48.436;10.028;2024-02-16T08:23:44;18.38;;;6.97;;
67675;SDS011;54456;48.436;10.028;2024-02-16T08:25:14;15.70;;;6.90;;
67675;SDS011;54456;48.436;10.028;2024-02-16T08:26:45;16.27;;;6.40;;
67675;SDS011;54456;48.436;10.028;2024-02-16T08:28:15;16.75;;;6.40;;
67675;SDS011;54456;48.436;10.028;2024-02-16T08:29:46;16.63;;;6.97;;
67675;SDS011;54456;48.436;10.028;2024-02-16T08:31:17;19.27;;;7.78;;
67675;SDS011;54456;48.436;10.028;2024-02-16T08:32:48;16.77;;;6.32;;
67675;SDS011;54456;48.436;10.028;2024-02-16T08:34:18;16.83;;;6.70;;
67675;SDS011;54456;48.436;10.028;2024-02-16T08:35:48;17.83;;;6.93;;
67675;SDS011;54456;48.436;10.028;2024-02-16T08:37:20;16.27;;;6.93;;
67675;SDS011;54456;48.436;10.028;2024-02-16T08:38:50;15.17;;;5.73;;
67675;SDS011;54456;48.436;10.028;2024-02-16T08:40:21;17.13;;;6.60;;
67675;SDS011;54456;48.436;10.028;2024-02-16T08:41:51;17.23;;;7.10;;
67675;SDS011;54456;48.436;10.028;2024-02-16T08:43:21;13.32;;;5.95;;
67675;SDS011;54456;48.436;10.028;2024-02-16T08:44:52;15.00;;;6.10;;
67675;SDS011;54456;48.436;10.028;2024-02-16T08:46:22;17.93;;;6.83;;
67675;SDS011;54456;48.436;10.028;2024-02-16T08:47:53;15.80;;;6.93;;
67675;SDS011;54456;48.436;10.028;2024-02-16T08:49:24;14.65;;;5.85;;
67675;SDS011;54456;48.436;10.028;2024-02-16T08:50:54;15.45;;;6.53;;
67675;SDS011;54456;48.436;10.028;2024-02-16T08:52:25;13.87;;;6.23;;
67675;SDS011;54456;48.436;10.028;2024-02-16T08:53:56;14.82;;;6.43;;
67675;SDS011;54456;48.436;10.028;2024-02-16T08:55:26;17.48;;;7.38;;
67675;SDS011;54456;48.436;10.028;2024-02-16T08:56:57;15.30;;;7.10;;
67675;SDS011;54456;48.436;10.028;2024-02-16T08:58:27;15.00;;;6.57;;
67675;SDS011;54456;48.436;10.028;2024-02-16T08:59:58;15.82;;;7.13;;
67675;SDS011;54456;48.436;10.028;2024-02-16T09:01:36;17.40;;;6.68;;
67675;SDS011;54456;48.436;10.028;2024-02-16T09:03:07;17.80;;;7.40;;
67675;SDS011;54456;48.436;10.028;2024-02-16T09:04:38;15.95;;;6.93;;
67675;SDS011;54456;48.436;10.028;2024-02-16T09:06:09;15.50;;;6.28;;
67675;SDS011;54456;48.436;10.028;2024-02-16T09:07:39;16.90;;;6.83;;
67675;SDS011;54456;48.436;10.028;2024-02-16T09:09:09;16.47;;;6.63;;
67675;SDS011;54456;48.436;10.028;2024-02-16T09:10:41;16.98;;;6.85;;
67675;SDS011;54456;48.436;10.028;2024-02-16T09:12:11;14.55;;;6.82;;
67675;SDS011;54456;48.436;10.028;2024-02-16T09:13:42;17.15;;;6.75;;
67675;SDS011;54456;48.436;10.028;2024-02-16T09:15:13;14.10;;;6.78;;
67675;SDS011;54456;48.436;10.028;2024-02-16T09:16:43;19.58;;;7.10;;
67675;SDS011;54456;48.436;10.028;2024-02-16T09:18:13;17.30;;;7.77;;
67675;SDS011;54456;48.436;10.028;2024-02-16T09:19:44;15.35;;;6.85;;
67675;SDS011;54456;48.436;10.028;2024-02-16T09:21:14;16.13;;;6.28;;
67675;SDS011;54456;48.436;10.028;2024-02-16T09:22:44;15.02;;;6.40;;
67675;SDS011;54456;48.436;10.028;2024-02-16T09:24:17;17.80;;;6.82;;
67675;SDS011;54456;48.436;10.028;2024-02-16T09:25:48;14.32;;;6.32;;
67675;SDS011;54456;48.436;10.028;2024-02-16T09:27:19;15.18;;;6.20;;
67675;SDS011;54456;48.436;10.028;2024-02-16T09:28:51;16.65;;;6.93;;
67675;SDS011;54456;48.436;10.028;2024-02-16T09:30:23;13.43;;;6.32;;
67675;SDS011;54456;48.436;10.028;2024-02-16T09:31:53;13.13;;;5.93;;
67675;SDS011;54456;48.436;10.028;2024-02-16T09:33:24;15.43;;;6.13;;
67675;SDS011;54456;48.436;10.028;2024-02-16T09:34:56;15.80;;;5.97;;
67675;SDS011;54456;48.436;10.028;2024-02-16T09:36:27;15.40;;;6.18;;
67675;SDS011;54456;48.436;10.028;2024-02-16T09:37:57;13.20;;;6.15;;
67675;SDS011;54456;48.436;10.028;2024-02-16T09:39:28;16.08;;;6.13;;
67675;SDS011;54456;48.436;10.028;2024-02-16T09:40:58;14.43;;;6.07;;
67675;SDS011;54456;48.436;10.028;2024-02-16T09:42:29;12.75;;;5.75;;
67675;SDS011;54456;48.436;10.028;2024-02-16T09:43:59;15.60;;;6.22;;
67675;SDS011;54456;48.436;10.028;2024-02-16T09:45:30;13.52;;;5.35;;
67675;SDS011;54456;48.436;10.028;2024-02-16T09:47:01;13.00;;;5.72;;
67675;SDS011;54456;48.436;10.028;2024-02-16T09:48:32;13.00;;;5.80;;
67675;SDS011;54456;48.436;10.028;2024-02-16T09:50:03;14.77;;;6.38;;
67675;SDS011;54456;48.436;10.028;2024-02-16T09:51:37;14.50;;;6.65;;
67675;SDS011;54456;48.436;10.028;2024-02-16T09:53:07;11.43;;;5.22;;
67675;SDS011;54456;48.436;10.028;2024-02-16T09:54:39;15.68;;;6.00;;
67675;SDS011;54456;48.436;10.028;2024-02-16T09:56:10;13.32;;;6.35;;
67675;SDS011;54456;48.436;10.028;2024-02-16T09:57:40;15.10;;;6.45;;
67675;SDS011;54456;48.436;10.028;2024-02-16T09:59:11;13.00;;;5.82;;
67675;SDS011;54456;48.436;10.028;2024-02-16T10:00:42;13.48;;;5.80;;
67675;SDS011;54456;48.436;10.028;2024-02-16T10:02:17;14.15;;;6.03;;
67675;SDS011;54456;48.436;10.028;2024-02-16T10:03:48;14.07;;;6.72;;
67675;SDS011;54456;48.436;10.028;2024-02-16T10:05:20;13.02;;;6.07;;
67675;SDS011;54456;48.436;10.028;2024-02-16T10:06:50;16.58;;;6.78;;
67675;SDS011;54456;48.436;10.028;2024-02-16T10:08:21;13.55;;;6.47;;
67675;SDS011;54456;48.436;10.028;2024-02-16T10:09:51;15.95;;;5.70;;
67675;SDS011;54456;48.436;10.028;2024-02-16T10:11:22;12.75;;;6.07;;
67675;SDS011;54456;48.436;10.028;2024-02-16T10:13:03;13.82;;;6.30;;
67675;SDS011;54456;48.436;10.028;2024-02-16T10:14:35;14.30;;;6.40;;
67675;SDS011;54456;48.436;10.028;2024-02-16T10:16:09;14.30;;;5.55;;
67675;SDS011;54456;48.436;10.028;2024-02-16T10:17:41;13.55;;;5.85;;
67675;SDS011;54456;48.436;10.028;2024-02-16T10:19:11;14.07;;;5.43;;
67675;SDS011;54456;48.436;10.028;2024-02-16T10:20:44;17.40;;;6.43;;
67675;SDS011;54456;48.436;10.028;2024-02-16T10:22:14;14.75;;;5.85;;
67675;SDS011;54456;48.436;10.028;2024-02-16T10:23:55;12.85;;;5.70;;
67675;SDS011;54456;48.436;10.028;2024-02-16T10:25:26;12.82;;;5.88;;
67675;SDS011;54456;48.436;10.028;2024-02-16T10:26:57;13.50;;;5.93;;
67675;SDS011;54456;48.436;10.028;2024-02-16T10:28:28;16.03;;;6.17;;
67675;SDS011;54456;48.436;10.028;2024-02-16T10:30:00;13.43;;;5.78;;
67675;SDS011;54456;48.436;10.028;2024-02-16T10:31:31;16.95;;;6.38;;
67675;SDS011;54456;48.436;10.028;2024-02-16T10:33:03;14.82;;;5.90;;
67675;SDS011;54456;48.436;10.028;2024-02-16T10:34:34;12.80;;;5.28;;
67675;SDS011;54456;48.436;10.028;2024-02-16T10:36:06;13.00;;;5.90;;
67675;SDS011;54456;48.436;10.028;2024-02-16T10:37:38;17.50;;;7.00;;
67675;SDS011;54456;48.436;10.028;2024-02-16T10:39:08;14.02;;;6.68;;
67675;SDS011;54456;48.436;10.028;2024-02-16T10:40:40;16.73;;;6.75;;
67675;SDS011;54456;48.436;10.028;2024-02-16T10:42:11;13.95;;;6.93;;
67675;SDS011;54456;48.436;10.028;2024-02-16T10:43:43;14.43;;;6.43;;
67675;SDS011;54456;48.436;10.028;2024-02-16T10:45:13;15.27;;;6.10;;
67675;SDS011;54456;48.436;10.028;2024-02-16T10:46:44;14.95;;;5.93;;
67675;SDS011;54456;48.436;10.028;2024-02-16T10:48:15;16.08;;;5.95;;
67675;SDS011;54456;48.436;10.028;2024-02-16T10:49:45;15.55;;;6.45;;
67675;SDS011;54456;48.436;10.028;2024-02-16T10:51:16;13.73;;;6.03;;
67675;SDS011;54456;48.436;10.028;2024-02-16T10:52:50;14.73;;;5.72;;
67675;SDS011;54456;48.436;10.028;2024-02-16T10:54:21;14.77;;;6.03;;
67675;SDS011;54456;48.436;10.028;2024-02-16T10:55:53;17.02;;;6.57;;
67675;SDS011;54456;48.436;10.028;2024-02-16T10:57:23;13.88;;;6.13;;
67675;SDS011;54456;48.436;10.028;2024-02-16T10:58:54;14.00;;;6.40;;
67675;SDS011;54456;48.436;10.028;2024-02-16T11:00:24;12.98;;;5.57;;
67675;SDS011;54456;48.436;10.028;2024-02-16T11:02:01;14.10;;;5.97;;
67675;SDS011;54456;48.436;10.028;2024-02-16T11:03:32;15.15;;;6.30;;
67675;SDS011;54456;48.436;10.028;2024-02-16T11:05:07;13.87;;;5.77;;
67675;SDS011;54456;48.436;10.028;2024-02-16T11:06:44;12.02;;;5.53;;
67675;SDS011;54456;48.436;10.028;2024-02-16T11:08:19;20.00;;;6.35;;
67675;SDS011;54456;48.436;10.028;2024-02-16T11:09:51;14.88;;;7.05;;
67675;SDS011;54456;48.436;10.028;2024-02-16T11:11:24;13.63;;;6.13;;
67675;SDS011;54456;48.436;10.028;2024-02-16T11:12:55;11.82;;;5.60;;
67675;SDS011;54456;48.436;10.028;2024-02-16T11:14:35;13.15;;;6.20;;
67675;SDS011;54456;48.436;10.028;2024-02-16T11:17:37;14.52;;;6.57;;
67675;SDS011;54456;48.436;10.028;2024-02-16T11:19:08;15.25;;;6.70;;
67675;SDS011;54456;48.436;10.028;2024-02-16T11:20:39;13.73;;;6.13;;
67675;SDS011;54456;48.436;10.028;2024-02-16T11:22:10;13.68;;;6.85;;
67675;SDS011;54456;48.436;10.028;2024-02-16T11:25:15;14.63;;;6.10;;
67675;SDS011;54456;48.436;10.028;2024-02-16T11:26:45;13.48;;;5.82;;
67675;SDS011;54456;48.436;10.028;2024-02-16T11:28:15;13.32;;;5.97;;
67675;SDS011;54456;48.436;10.028;2024-02-16T11:29:46;12.93;;;5.35;;
67675;SDS011;54456;48.436;10.028;2024-02-16T11:31:17;13.85;;;5.25;;
67675;SDS011;54456;48.436;10.028;2024-02-16T11:32:47;11.80;;;5.22;;
67675;SDS011;54456;48.436;10.028;2024-02-16T11:34:21;13.40;;;5.60;;
67675;SDS011;54456;48.436;10.028;2024-02-16T11:35:56;13.27;;;5.47;;
67675;SDS011;54456;48.436;10.028;2024-02-16T11:37:27;14.50;;;6.10;;
67675;SDS011;54456;48.436;10.028;2024-02-16T11:38:58;12.05;;;5.10;;
67675;SDS011;54456;48.436;10.028;2024-02-16T11:40:28;13.13;;;4.97;;
67675;SDS011;54456;48.436;10.028;2024-02-16T11:42:01;11.88;;;5.65;;
67675;SDS011;54456;48.436;10.028;2024-02-16T11:43:35;11.15;;;4.90;;
67675;SDS011;54456;48.436;10.028;2024-02-16T11:45:05;11.80;;;5.13;;
67675;SDS011;54456;48.436;10.028;2024-02-16T11:46:36;9.77;;;4.40;;
67675;SDS011;54456;48.436;10.028;2024-02-16T11:48:08;10.95;;;4.72;;
67675;SDS011;54456;48.436;10.028;2024-02-16T11:49:39;10.90;;;4.88;;
67675;SDS011;54456;48.436;10.028;2024-02-16T11:51:10;12.00;;;4.67;;
67675;SDS011;54456;48.436;10.028;2024-02-16T11:52:40;12.15;;;4.85;;
67675;SDS011;54456;48.436;10.028;2024-02-16T11:54:11;11.75;;;5.00;;
67675;SDS011;54456;48.436;10.028;2024-02-16T11:55:46;11.20;;;5.38;;
67675;SDS011;54456;48.436;10.028;2024-02-16T11:57:20;11.82;;;4.95;;
67675;SDS011;54456;48.436;10.028;2024-02-16T11:58:50;10.60;;;4.55;;
67675;SDS011;54456;48.436;10.028;2024-02-16T12:00:21;10.63;;;5.18;;
67675;SDS011;54456;48.436;10.028;2024-02-16T12:01:51;12.82;;;5.15;;
67675;SDS011;54456;48.436;10.028;2024-02-16T12:03:26;11.55;;;5.15;;
67675;SDS011;54456;48.436;10.028;2024-02-16T12:04:58;11.27;;;5.53;;
67675;SDS011;54456;48.436;10.028;2024-02-16T12:06:29;11.90;;;4.90;;
67675;SDS011;54456;48.436;10.028;2024-02-16T12:08:00;11.57;;;4.80;;
67675;SDS011;54456;48.436;10.028;2024-02-16T12:09:30;11.18;;;4.70;;
67675;SDS011;54456;48.436;10.028;2024-02-16T12:11:04;12.00;;;5.00;;
67675;SDS011;54456;48.436;10.028;2024-02-16T12:12:34;11.23;;;4.60;;
67675;SDS011;54456;48.436;10.028;2024-02-16T12:14:05;10.38;;;4.53;;
67675;SDS011;54456;48.436;10.028;2024-02-16T12:15:37;9.97;;;4.37;;
67675;SDS011;54456;48.436;10.028;2024-02-16T12:17:08;11.95;;;4.97;;
67675;SDS011;54456;48.436;10.028;2024-02-16T12:18:38;13.23;;;5.05;;
67675;SDS011;54456;48.436;10.028;2024-02-16T12:20:12;12.02;;;5.00;;
67675;SDS011;54456;48.436;10.028;2024-02-16T12:21:43;12.95;;;5.13;;
67675;SDS011;54456;48.436;10.028;2024-02-16T12:23:14;13.27;;;5.13;;
67675;SDS011;54456;48.436;10.028;2024-02-16T12:24:45;12.47;;;5.27;;
67675;SDS011;54456;48.436;10.028;2024-02-16T12:26:16;10.82;;;4.63;;
67675;SDS011;54456;48.436;10.028;2024-02-16T12:27:46;12.30;;;5.07;;
67675;SDS011;54456;48.436;10.028;2024-02-16T12:29:17;11.05;;;4.80;;
67675;SDS011;54456;48.436;10.028;2024-02-16T12:30:47;11.45;;;4.95;;
67675;SDS011;54456;48.436;10.028;2024-02-16T12:32:18;12.13;;;4.85;;
67675;SDS011;54456;48.436;10.028;2024-02-16T12:33:49;12.07;;;4.90;;
67675;SDS011;54456;48.436;10.028;2024-02-16T12:35:20;12.90;;;5.28;;
67675;SDS011;54456;48.436;10.028;2024-02-16T12:36:50;13.50;;;5.13;;
67675;SDS011;54456;48.436;10.028;2024-02-16T12:38:20;13.13;;;5.60;;
67675;SDS011;54456;48.436;10.028;2024-02-16T12:39:51;12.50;;;5.65;;